createdAt,value
2018-11-21T00:00:52.989Z,2.07
2018-11-21T00:02:01.887Z,1.98
2018-11-21T00:03:10.530Z,2.04
2018-11-21T00:04:19.157Z,1.98
2018-11-21T00:05:27.795Z,2.04
2018-11-21T00:06:36.420Z,2.07
2018-11-21T00:07:45.328Z,1.93
2018-11-21T00:08:53.959Z,1.92
2018-11-21T00:10:02.595Z,1.95
2018-11-21T00:11:11.479Z,1.97
2018-11-21T00:12:20.123Z,1.89
2018-11-21T00:13:28.757Z,1.97
2018-11-21T00:14:37.393Z,1.88
2018-11-21T00:15:46.018Z,1.95
2018-11-21T00:16:54.651Z,1.95
2018-11-21T00:18:03.291Z,1.93
2018-11-21T00:19:11.928Z,1.89
2018-11-21T00:20:20.564Z,1.89
2018-11-21T00:21:29.189Z,1.92
2018-11-21T00:22:37.831Z,1.86
2018-11-21T00:23:46.456Z,1.86
2018-11-21T00:24:55.097Z,1.78
2018-11-21T00:26:03.988Z,1.81
2018-11-21T00:27:12.629Z,1.86
2018-11-21T00:28:21.258Z,1.82
2018-11-21T00:29:29.900Z,1.79
2018-11-21T00:30:38.524Z,1.76
2018-11-21T00:31:47.157Z,1.76
2018-11-21T00:32:55.784Z,1.79
2018-11-21T00:34:04.429Z,1.79
2018-11-21T00:35:13.059Z,1.74
2018-11-21T00:36:21.689Z,1.81
2018-11-21T00:37:30.321Z,1.79
2018-11-21T00:38:38.952Z,1.76
2018-11-21T00:39:47.596Z,1.79
2018-11-21T00:40:56.225Z,1.76
2018-11-21T00:42:04.861Z,1.82
2018-11-21T00:43:13.748Z,1.82
2018-11-21T00:44:22.391Z,1.75
2018-11-21T00:45:31.285Z,1.78
2018-11-21T00:46:39.924Z,1.82
2018-11-21T00:47:48.554Z,1.85
2018-11-21T00:48:57.196Z,1.75
2018-11-21T00:50:05.834Z,1.75
2018-11-21T00:51:16.026Z,1.82
2018-11-21T00:52:24.659Z,1.79
2018-11-21T00:53:33.564Z,1.71
2018-11-21T00:54:42.197Z,1.74
2018-11-21T00:55:50.830Z,1.63
2018-11-21T00:57:00.114Z,1.6
2018-11-21T00:58:08.745Z,1.58
2018-11-21T00:59:17.377Z,1.57
2018-11-21T01:00:26.011Z,1.61
2018-11-21T01:01:34.651Z,1.58
2018-11-21T01:02:43.279Z,1.61
2018-11-21T01:03:51.913Z,1.6
2018-11-21T01:05:00.552Z,1.56
2018-11-21T01:06:09.452Z,1.53
2018-11-21T01:07:18.083Z,1.38
2018-11-21T01:08:26.718Z,1.46
2018-11-21T01:09:35.352Z,1.43
2018-11-21T01:10:43.986Z,1.36
2018-11-21T01:11:52.621Z,1.45
2018-11-21T01:13:01.256Z,1.34
2018-11-21T01:14:10.150Z,1.36
2018-11-21T01:15:19.310Z,1.36
2018-11-21T01:16:27.950Z,1.31
2018-11-21T01:17:36.841Z,1.3
2018-11-21T01:18:45.474Z,1.34
2018-11-21T01:19:54.365Z,1.31
2018-11-21T01:21:03.005Z,1.27
2018-11-21T01:22:11.642Z,1.38
2018-11-21T01:23:20.276Z,1.38
2018-11-21T01:24:28.907Z,1.38
2018-11-21T01:25:37.546Z,1.42
2018-11-21T01:26:46.173Z,1.38
2018-11-21T01:27:54.809Z,1.39
2018-11-21T01:29:03.699Z,1.36
2018-11-21T01:30:12.333Z,1.42
2018-11-21T01:31:20.964Z,1.38
2018-11-21T01:32:29.602Z,1.46
2018-11-21T01:33:38.240Z,1.36
2018-11-21T01:34:46.870Z,1.38
2018-11-21T01:35:55.507Z,1.43
2018-11-21T01:37:04.139Z,1.39
2018-11-21T01:38:12.776Z,1.6
2018-11-21T01:39:21.938Z,1.58
2018-11-21T01:40:30.571Z,1.53
2018-11-21T01:41:39.206Z,1.56
2018-11-21T01:42:47.845Z,1.57
2018-11-21T01:43:56.470Z,1.46
2018-11-21T01:45:05.108Z,1.56
2018-11-21T01:46:13.743Z,1.46
2018-11-21T01:47:22.390Z,1.48
2018-11-21T01:48:31.027Z,1.45
2018-11-21T01:49:39.660Z,1.38
2018-11-21T01:50:48.295Z,1.42
2018-11-21T01:51:56.930Z,1.34
2018-11-21T01:53:05.564Z,1.38
2018-11-21T01:54:14.198Z,1.4
2018-11-21T01:55:22.832Z,1.39
2018-11-21T01:56:31.471Z,1.42
2018-11-21T01:57:40.627Z,1.4
2018-11-21T01:58:49.299Z,1.42
2018-11-21T01:59:57.894Z,1.43
2018-11-21T02:01:06.798Z,1.36
2018-11-21T02:02:15.425Z,1.45
2018-11-21T02:03:24.060Z,1.49
2018-11-21T02:04:32.692Z,1.56
2018-11-21T02:05:41.599Z,1.52
2018-11-21T02:06:50.236Z,1.56
2018-11-21T02:07:58.864Z,1.52
2018-11-21T02:09:07.497Z,1.5
2018-11-21T02:10:16.130Z,1.57
2018-11-21T02:11:25.032Z,1.57
2018-11-21T02:12:33.666Z,1.43
2018-11-21T02:13:42.300Z,1.4
2018-11-21T02:14:50.933Z,1.36
2018-11-21T02:15:59.567Z,1.4
2018-11-21T02:17:08.205Z,1.48
2018-11-21T02:18:16.836Z,1.43
2018-11-21T02:19:25.467Z,1.39
2018-11-21T02:20:34.112Z,1.39
2018-11-21T02:21:42.744Z,1.42
2018-11-21T02:22:51.379Z,1.43
2018-11-21T02:24:00.012Z,1.46
2018-11-21T02:25:08.644Z,1.45
2018-11-21T02:26:17.282Z,1.46
2018-11-21T02:27:25.913Z,1.43
2018-11-21T02:28:34.547Z,1.42
2018-11-21T02:29:43.179Z,1.58
2018-11-21T02:30:51.818Z,1.52
2018-11-21T02:32:00.451Z,1.57
2018-11-21T02:33:09.361Z,1.48
2018-11-21T02:34:18.253Z,1.5
2018-11-21T02:35:27.154Z,1.49
2018-11-21T02:36:36.062Z,1.53
2018-11-21T02:37:45.232Z,1.53
2018-11-21T02:38:54.125Z,1.57
2018-11-21T02:40:02.772Z,1.58
2018-11-21T02:41:11.406Z,1.6
2018-11-21T02:42:20.317Z,1.57
2018-11-21T02:43:28.953Z,1.57
2018-11-21T02:44:37.854Z,1.56
2018-11-21T02:45:46.489Z,1.57
2018-11-21T02:46:55.389Z,1.53
2018-11-21T02:48:04.300Z,1.64
2018-11-21T02:49:12.941Z,1.57
2018-11-21T02:50:21.584Z,1.57
2018-11-21T02:51:30.209Z,1.68
2018-11-21T02:52:39.126Z,1.68
2018-11-21T02:53:47.764Z,1.75
2018-11-21T02:54:56.416Z,1.66
2018-11-21T02:56:05.332Z,1.89
2018-11-21T02:57:13.960Z,1.85
2018-11-21T02:58:22.599Z,1.85
2018-11-21T02:59:31.237Z,1.78
2018-11-21T03:00:39.863Z,1.78
2018-11-21T03:01:48.760Z,1.76
2018-11-21T03:02:57.400Z,1.88
2018-11-21T03:04:06.036Z,1.95
2018-11-21T03:05:14.937Z,1.93
2018-11-21T03:06:24.354Z,1.95
2018-11-21T03:07:32.991Z,1.97
2018-11-21T03:08:41.616Z,2.03
2018-11-21T03:09:50.258Z,2.04
2018-11-21T03:10:59.156Z,2.14
2018-11-21T03:12:08.065Z,2.14
2018-11-21T03:13:16.686Z,2.16
2018-11-21T03:14:25.870Z,2.23
2018-11-21T03:15:34.494Z,2.25
2018-11-21T03:16:43.145Z,2.33
2018-11-21T03:17:52.310Z,2.37
2018-11-21T03:19:01.228Z,2.4
2018-11-21T03:20:10.130Z,2.5
2018-11-21T03:21:19.062Z,2.41
2018-11-21T03:22:27.699Z,2.46
2018-11-21T03:23:36.329Z,2.47
2018-11-21T03:24:44.974Z,2.5
2018-11-21T03:25:53.607Z,2.54
2018-11-21T03:27:02.771Z,2.47
2018-11-21T03:28:11.400Z,2.54
2018-11-21T03:29:20.044Z,2.58
2018-11-21T03:30:28.936Z,2.58
2018-11-21T03:31:38.113Z,2.51
2018-11-21T03:32:47.061Z,2.51
2018-11-21T03:33:57.756Z,2.54
2018-11-21T03:35:06.768Z,2.54
2018-11-21T03:36:15.408Z,2.5
2018-11-21T03:37:24.033Z,2.51
2018-11-21T03:38:32.945Z,2.46
2018-11-21T03:39:41.589Z,2.47
2018-11-21T03:40:50.225Z,2.47
2018-11-21T03:41:58.862Z,2.52
2018-11-21T03:43:07.486Z,2.5
2018-11-21T03:44:16.404Z,2.54
2018-11-21T03:45:25.033Z,2.46
2018-11-21T03:46:33.680Z,2.46
2018-11-21T03:47:42.834Z,2.43
2018-11-21T03:48:51.747Z,2.39
2018-11-21T03:50:00.637Z,2.3
2018-11-21T03:51:09.562Z,2.32
2018-11-21T03:52:18.446Z,2.26
2018-11-21T03:53:27.345Z,2.23
2018-11-21T03:54:35.977Z,2.22
2018-11-21T03:55:45.153Z,2.32
2018-11-21T03:56:54.056Z,2.23
2018-11-21T03:58:02.688Z,2.22
2018-11-21T03:59:11.582Z,2.22
2018-11-21T04:00:20.476Z,2.26
2018-11-21T04:01:29.383Z,2.16
2018-11-21T04:02:38.280Z,2.12
2018-11-21T04:03:47.188Z,2.14
2018-11-21T04:04:55.815Z,2.23
2018-11-21T04:06:04.461Z,2.23
2018-11-21T04:07:13.091Z,2.23
2018-11-21T04:08:21.737Z,2.15
2018-11-21T04:09:30.363Z,2.32
2018-11-21T04:10:39.015Z,2.23
2018-11-21T04:11:47.641Z,2.25
2018-11-21T04:12:56.281Z,2.22
2018-11-21T04:14:05.245Z,2.25
2018-11-21T04:15:13.869Z,2.22
2018-11-21T04:16:22.511Z,2.33
2018-11-21T04:17:31.151Z,2.33
2018-11-21T04:18:39.790Z,2.25
2018-11-21T04:19:48.677Z,2.33
2018-11-21T04:20:57.316Z,2.3
2018-11-21T04:22:05.950Z,2.32
2018-11-21T04:23:14.870Z,2.46
2018-11-21T04:24:23.754Z,2.46
2018-11-21T04:25:32.656Z,2.43
2018-11-21T04:26:41.545Z,2.46
2018-11-21T04:27:50.188Z,2.47
2018-11-21T04:28:58.817Z,2.47
2018-11-21T04:30:07.458Z,2.54
2018-11-21T04:31:16.094Z,2.52
2018-11-21T04:32:24.742Z,2.5
2018-11-21T04:33:33.376Z,2.51
2018-11-21T04:34:42.268Z,2.54
2018-11-21T04:35:51.194Z,2.59
2018-11-21T04:36:59.826Z,2.58
2018-11-21T04:38:08.471Z,2.59
2018-11-21T04:39:17.103Z,2.57
2018-11-21T04:40:26.018Z,2.54
2018-11-21T04:41:34.645Z,2.55
2018-11-21T04:42:43.554Z,2.61
2018-11-21T04:43:52.717Z,2.7
2018-11-21T04:45:01.365Z,2.72
2018-11-21T04:46:10.268Z,2.68
2018-11-21T04:47:18.908Z,2.69
2018-11-21T04:48:27.542Z,2.73
2018-11-21T04:49:36.178Z,2.76
2018-11-21T04:50:44.813Z,2.77
2018-11-21T04:51:53.450Z,2.75
2018-11-21T04:53:02.091Z,2.72
2018-11-21T04:54:10.736Z,2.72
2018-11-21T04:55:19.934Z,2.76
2018-11-21T04:56:28.840Z,2.76
2018-11-21T04:57:37.470Z,2.77
2018-11-21T04:58:46.369Z,2.69
2018-11-21T04:59:55.007Z,2.73
2018-11-21T05:01:03.639Z,2.75
2018-11-21T05:02:12.270Z,2.73
2018-11-21T05:03:20.909Z,2.76
2018-11-21T05:04:29.545Z,2.72
2018-11-21T05:05:38.173Z,2.69
2018-11-21T05:06:46.810Z,2.68
2018-11-21T05:07:55.713Z,2.61
2018-11-21T05:09:04.353Z,2.62
2018-11-21T05:10:13.245Z,2.64
2018-11-21T05:11:21.878Z,2.54
2018-11-21T05:12:30.773Z,2.59
2018-11-21T05:13:39.403Z,2.58
2018-11-21T05:14:48.048Z,2.59
2018-11-21T05:15:56.682Z,2.57
2018-11-21T05:17:05.325Z,2.59
2018-11-21T05:18:13.954Z,2.69
2018-11-21T05:19:22.590Z,2.69
2018-11-21T05:20:31.746Z,2.65
2018-11-21T05:21:40.380Z,2.61
2018-11-21T05:22:49.009Z,2.59
2018-11-21T05:23:57.648Z,2.52
2018-11-21T05:25:06.281Z,2.57
2018-11-21T05:26:15.180Z,2.64
2018-11-21T05:27:23.811Z,2.54
2018-11-21T05:28:32.448Z,2.52
2018-11-21T05:29:41.342Z,2.55
2018-11-21T05:30:50.243Z,2.5
2018-11-21T05:31:58.880Z,2.51
2018-11-21T05:33:07.507Z,2.46
2018-11-21T05:34:16.147Z,2.46
2018-11-21T05:35:24.783Z,2.33
2018-11-21T05:36:33.698Z,2.36
2018-11-21T05:37:42.592Z,2.41
2018-11-21T05:38:51.503Z,2.32
2018-11-21T05:40:00.394Z,2.28
2018-11-21T05:41:09.295Z,2.28
2018-11-21T05:42:17.924Z,2.32
2018-11-21T05:43:26.561Z,2.32
2018-11-21T05:44:35.200Z,2.23
2018-11-21T05:45:43.830Z,2.25
2018-11-21T05:46:53.727Z,2.21
2018-11-21T05:48:01.103Z,2.19
2018-11-21T05:49:10.002Z,2.1
2018-11-21T05:50:18.640Z,2.04
2018-11-21T05:51:27.534Z,1.97
2018-11-21T05:52:36.168Z,2.04
2018-11-21T05:53:44.804Z,1.92
2018-11-21T05:54:53.705Z,1.95
2018-11-21T05:56:02.336Z,2.07
2018-11-21T05:57:10.969Z,2.01
2018-11-21T05:58:19.863Z,2.03
2018-11-21T05:59:28.501Z,1.88
2018-11-21T06:00:37.129Z,1.93
2018-11-21T06:01:45.763Z,1.85
2018-11-21T06:02:54.659Z,1.82
2018-11-21T06:04:03.300Z,1.89
2018-11-21T06:05:12.205Z,1.82
2018-11-21T06:06:21.107Z,1.82
2018-11-21T06:07:29.738Z,1.84
2018-11-21T06:08:38.373Z,1.89
2018-11-21T06:09:47.294Z,1.85
2018-11-21T06:10:55.919Z,1.71
2018-11-21T06:12:04.595Z,1.78
2018-11-21T06:13:13.448Z,1.76
2018-11-21T06:14:22.098Z,1.78
2018-11-21T06:15:30.991Z,1.76
2018-11-21T06:16:39.623Z,1.79
2018-11-21T06:17:48.411Z,1.67
2018-11-21T06:18:56.891Z,1.79
2018-11-21T06:20:05.521Z,1.71
2018-11-21T06:21:14.160Z,1.74
2018-11-21T06:22:22.792Z,1.64
2018-11-21T06:23:31.420Z,1.67
2018-11-21T06:24:40.061Z,1.64
2018-11-21T06:25:48.957Z,1.75
2018-11-21T06:26:57.591Z,1.75
2018-11-21T06:28:06.222Z,1.75
2018-11-21T06:29:15.131Z,1.81
2018-11-21T06:30:23.766Z,1.75
2018-11-21T06:31:32.407Z,1.81
2018-11-21T06:32:41.302Z,1.79
2018-11-21T06:33:50.196Z,1.81
2018-11-21T06:34:58.828Z,1.79
2018-11-21T06:36:07.474Z,1.76
2018-11-21T06:37:16.095Z,1.86
2018-11-21T06:38:24.732Z,1.76
2018-11-21T06:39:33.624Z,1.74
2018-11-21T06:40:42.264Z,1.75
2018-11-21T06:41:50.896Z,1.74
2018-11-21T06:42:59.533Z,1.63
2018-11-21T06:44:08.433Z,1.61
2018-11-21T06:45:17.066Z,1.58
2018-11-21T06:46:25.706Z,1.56
2018-11-21T06:47:34.614Z,1.64
2018-11-21T06:48:43.519Z,1.6
2018-11-21T06:49:52.406Z,1.6
2018-11-21T06:51:01.583Z,1.57
2018-11-21T06:52:10.211Z,1.6
2018-11-21T06:53:18.847Z,1.67
2018-11-21T06:54:27.473Z,1.61
2018-11-21T06:55:36.119Z,1.6
2018-11-21T06:56:45.017Z,1.58
2018-11-21T06:57:53.650Z,1.68
2018-11-21T06:59:02.277Z,1.66
2018-11-21T07:00:10.914Z,1.66
2018-11-21T07:01:19.552Z,1.58
2018-11-21T07:02:28.187Z,1.61
2018-11-21T07:03:36.825Z,1.7
2018-11-21T07:04:45.448Z,1.78
2018-11-21T07:05:54.087Z,1.7
2018-11-21T07:07:02.721Z,1.82
2018-11-21T07:08:11.362Z,1.88
2018-11-21T07:09:19.986Z,1.84
2018-11-21T07:10:28.626Z,1.92
2018-11-21T07:11:37.251Z,1.95
2018-11-21T07:12:45.898Z,1.86
2018-11-21T07:13:54.523Z,2.01
2018-11-21T07:15:03.159Z,1.82
2018-11-21T07:16:11.791Z,1.97
2018-11-21T07:17:20.432Z,1.89
2018-11-21T07:18:29.068Z,1.89
2018-11-21T07:19:37.693Z,1.97
2018-11-21T07:20:46.323Z,1.98
2018-11-21T07:21:55.217Z,1.98
2018-11-21T07:23:03.861Z,1.84
2018-11-21T07:24:12.489Z,1.86
2018-11-21T07:25:21.131Z,1.95
2018-11-21T07:26:29.755Z,2.03
2018-11-21T07:27:38.397Z,1.98
2018-11-21T07:28:47.029Z,2.04
2018-11-21T07:29:55.668Z,1.98
2018-11-21T07:31:04.291Z,2.01
2018-11-21T07:32:12.946Z,2.1
2018-11-21T07:33:21.579Z,2.14
2018-11-21T07:34:30.215Z,2.19
2018-11-21T07:35:38.843Z,2.16
2018-11-21T07:36:47.479Z,2.26
2018-11-21T07:37:56.121Z,2.18
2018-11-21T07:39:05.025Z,2.3
2018-11-21T07:40:13.661Z,2.33
2018-11-21T07:41:22.285Z,2.28
2018-11-21T07:42:30.922Z,2.23
2018-11-21T07:43:39.555Z,2.28
2018-11-21T07:44:48.195Z,2.19
2018-11-21T07:45:57.093Z,2.21
2018-11-21T07:47:05.727Z,2.22
2018-11-21T07:48:20.154Z,2.18
2018-11-21T07:49:29.420Z,2.15
2018-11-21T07:50:38.049Z,2.22
2018-11-21T07:51:46.687Z,2.3
2018-11-21T07:52:55.317Z,2.3
2018-11-21T07:54:03.952Z,2.23
2018-11-21T07:55:12.583Z,2.3
2018-11-21T07:56:21.218Z,2.41
2018-11-21T07:57:29.849Z,2.33
2018-11-21T07:58:38.481Z,2.37
2018-11-21T07:59:47.120Z,2.44
2018-11-21T08:00:55.754Z,2.41
2018-11-21T08:02:04.388Z,2.46
2018-11-21T08:03:13.018Z,2.44
2018-11-21T08:04:21.657Z,2.46
2018-11-21T08:05:30.292Z,2.41
2018-11-21T08:06:38.926Z,2.4
2018-11-21T08:07:47.821Z,2.43
2018-11-21T08:08:56.736Z,2.46
2018-11-21T08:10:05.371Z,2.46
2018-11-21T08:11:14.006Z,2.47
2018-11-21T08:12:22.897Z,2.5
2018-11-21T08:13:31.535Z,2.62
2018-11-21T08:14:40.452Z,2.64
2018-11-21T08:15:49.068Z,2.72
2018-11-21T08:16:57.707Z,2.7
2018-11-21T08:18:06.337Z,2.73
2018-11-21T08:19:14.970Z,2.69
2018-11-21T08:20:23.608Z,2.72
2018-11-21T08:21:32.247Z,2.77
2018-11-21T08:22:40.878Z,2.72
2018-11-21T08:23:55.488Z,2.77
2018-11-21T08:25:02.776Z,2.9
2018-11-21T08:26:11.414Z,2.85
2018-11-21T08:27:20.044Z,2.83
2018-11-21T08:28:28.694Z,2.94
2018-11-21T08:29:37.588Z,2.88
2018-11-21T08:30:46.229Z,2.88
2018-11-21T08:31:54.860Z,2.95
2018-11-21T08:33:03.493Z,3.01
2018-11-21T08:34:12.397Z,3.01
2018-11-21T08:35:21.031Z,3
2018-11-21T08:36:29.669Z,3.11
2018-11-21T08:37:38.308Z,3.05
2018-11-21T08:38:46.944Z,3.13
2018-11-21T08:39:55.575Z,3.03
2018-11-21T08:41:04.215Z,3.11
2018-11-21T08:42:12.848Z,3.11
2018-11-21T08:43:21.753Z,3.18
2018-11-21T08:44:30.377Z,3.22
2018-11-21T08:45:39.023Z,3.26
2018-11-21T08:46:47.654Z,3.36
2018-11-21T08:47:56.294Z,3.4
2018-11-21T08:49:04.923Z,3.37
2018-11-21T08:50:13.826Z,3.5
2018-11-21T08:51:22.465Z,3.37
2018-11-21T08:52:31.369Z,3.48
2018-11-21T08:53:40.006Z,3.48
2018-11-21T08:54:48.632Z,3.52
2018-11-21T08:55:57.273Z,3.58
2018-11-21T08:57:05.903Z,3.56
2018-11-21T08:58:14.816Z,3.49
2018-11-21T08:59:23.441Z,3.61
2018-11-21T09:00:32.084Z,3.58
2018-11-21T09:01:40.980Z,3.55
2018-11-21T09:02:49.624Z,3.66
2018-11-21T09:03:58.252Z,3.67
2018-11-21T09:05:06.892Z,3.66
2018-11-21T09:06:15.527Z,3.64
2018-11-21T09:07:24.172Z,3.66
2018-11-21T09:08:32.803Z,3.71
2018-11-21T09:09:41.434Z,3.73
2018-11-21T09:10:50.069Z,3.76
2018-11-21T09:11:58.698Z,3.74
2018-11-21T09:13:07.348Z,3.74
2018-11-21T09:14:16.510Z,3.81
2018-11-21T09:15:25.417Z,3.82
2018-11-21T09:16:34.044Z,3.84
2018-11-21T09:17:42.689Z,3.91
2018-11-21T09:18:51.325Z,3.91
2018-11-21T09:19:59.965Z,3.85
2018-11-21T09:21:08.594Z,3.94
2018-11-21T09:22:17.238Z,3.99
2018-11-21T09:23:25.869Z,3.95
2018-11-21T09:24:34.508Z,4.12
2018-11-21T09:25:43.134Z,4.18
2018-11-21T09:26:51.770Z,4.2
2018-11-21T09:28:00.409Z,4.32
2018-11-21T09:29:09.314Z,4.31
2018-11-21T09:30:18.217Z,4.31
2018-11-21T09:31:27.103Z,4.36
2018-11-21T09:32:35.747Z,4.31
2018-11-21T09:33:44.640Z,4.38
2018-11-21T09:34:53.283Z,4.4
2018-11-21T09:36:01.915Z,4.45
2018-11-21T09:37:10.554Z,4.52
2018-11-21T09:38:19.184Z,4.52
2018-11-21T09:39:27.818Z,4.57
2018-11-21T09:40:36.462Z,4.6
2018-11-21T09:41:45.098Z,4.5
2018-11-21T09:42:53.995Z,4.66
2018-11-21T09:44:02.622Z,4.5
2018-11-21T09:45:11.420Z,4.7
2018-11-21T09:46:19.896Z,4.67
2018-11-21T09:47:28.536Z,4.64
2018-11-21T09:48:37.176Z,4.64
2018-11-21T09:49:45.801Z,4.74
2018-11-21T09:50:54.442Z,4.66
2018-11-21T09:52:03.073Z,4.66
2018-11-21T09:53:11.719Z,4.66
2018-11-21T09:54:20.347Z,4.66
2018-11-21T09:55:29.262Z,4.64
2018-11-21T09:56:37.895Z,4.68
2018-11-21T09:57:46.542Z,4.82
2018-11-21T09:58:55.169Z,4.79
2018-11-21T10:00:03.806Z,4.82
2018-11-21T10:01:12.709Z,4.74
2018-11-21T10:02:21.354Z,4.76
2018-11-21T10:03:29.988Z,4.83
2018-11-21T10:04:38.627Z,4.89
2018-11-21T10:05:47.251Z,4.95
2018-11-21T10:06:55.886Z,4.86
2018-11-21T10:08:04.538Z,4.89
2018-11-21T10:09:13.171Z,4.86
2018-11-21T10:10:21.812Z,4.82
2018-11-21T10:11:30.544Z,4.89
2018-11-21T10:12:39.190Z,4.9
2018-11-21T10:13:47.946Z,4.82
2018-11-21T10:14:56.982Z,4.86
2018-11-21T10:16:05.609Z,4.82
2018-11-21T10:17:14.269Z,4.95
2018-11-21T10:18:22.892Z,4.89
2018-11-21T10:19:31.532Z,4.92
2018-11-21T10:20:40.156Z,4.92
2018-11-21T10:21:48.796Z,4.92
2018-11-21T10:22:57.435Z,4.9
2018-11-21T10:24:06.072Z,5
2018-11-21T10:25:14.716Z,4.9
2018-11-21T10:26:23.344Z,4.89
2018-11-21T10:27:32.257Z,4.84
2018-11-21T10:28:41.154Z,4.71
2018-11-21T10:29:49.799Z,4.82
2018-11-21T10:30:58.427Z,4.63
2018-11-21T10:32:07.335Z,4.7
2018-11-21T10:33:16.227Z,4.7
2018-11-21T10:34:25.071Z,4.61
2018-11-21T10:35:35.972Z,4.56
2018-11-21T10:36:42.729Z,4.58
2018-11-21T10:37:51.366Z,4.58
2018-11-21T10:39:00.008Z,4.53
2018-11-21T10:40:08.647Z,4.64
2018-11-21T10:41:17.548Z,4.63
2018-11-21T10:42:26.181Z,4.61
2018-11-21T10:43:35.075Z,4.68
2018-11-21T10:44:43.720Z,4.66
2018-11-21T10:45:52.355Z,4.64
2018-11-21T10:47:00.992Z,4.79
2018-11-21T10:48:09.628Z,4.78
2018-11-21T10:49:18.267Z,4.79
2018-11-21T10:50:27.102Z,4.84
2018-11-21T10:51:36.390Z,4.84
2018-11-21T10:52:45.404Z,4.89
2018-11-21T10:53:54.112Z,4.89
2018-11-21T10:55:03.091Z,5
2018-11-21T10:56:11.996Z,5.12
2018-11-21T10:57:20.636Z,5.13
2018-11-21T10:58:29.737Z,5.18
2018-11-21T10:59:38.782Z,5.31
2018-11-21T11:00:47.420Z,5.28
2018-11-21T11:01:56.063Z,5.38
2018-11-21T11:03:06.093Z,5.44
2018-11-21T11:04:14.913Z,5.44
2018-11-21T11:05:25.627Z,5.4
2018-11-21T11:06:34.956Z,5.43
2018-11-21T11:07:44.879Z,5.47
2018-11-21T11:08:53.533Z,5.52
2018-11-21T11:10:02.175Z,5.52
2018-11-21T11:11:11.090Z,5.51
2018-11-21T11:12:20.048Z,5.52
2018-11-21T11:13:28.999Z,5.55
2018-11-21T11:14:40.158Z,5.54
2018-11-21T11:15:48.804Z,5.51
2018-11-21T11:16:57.444Z,5.51
2018-11-21T11:18:06.078Z,5.52
2018-11-21T11:19:14.714Z,5.49
2018-11-21T11:20:23.616Z,5.51
2018-11-21T11:21:32.267Z,5.47
2018-11-21T11:22:40.902Z,5.52
2018-11-21T11:23:49.537Z,5.55
2018-11-21T11:24:58.432Z,5.52
2018-11-21T11:26:07.075Z,5.55
2018-11-21T11:27:15.974Z,5.54
2018-11-21T11:28:24.610Z,5.58
2018-11-21T11:29:33.248Z,5.56
2018-11-21T11:30:41.896Z,5.67
2018-11-21T11:31:50.794Z,5.54
2018-11-21T11:32:59.433Z,5.64
2018-11-21T11:34:08.066Z,5.61
2018-11-21T11:35:16.705Z,5.67
2018-11-21T11:36:25.342Z,5.65
2018-11-21T11:37:33.980Z,5.73
2018-11-21T11:38:42.620Z,5.72
2018-11-21T11:39:51.267Z,5.72
2018-11-21T11:40:59.901Z,5.65
2018-11-21T11:42:08.542Z,5.64
2018-11-21T11:43:17.182Z,5.7
2018-11-21T11:44:25.819Z,5.69
2018-11-21T11:45:34.714Z,5.65
2018-11-21T11:46:43.883Z,5.62
2018-11-21T11:47:52.509Z,5.56
2018-11-21T11:49:01.159Z,5.59
2018-11-21T11:50:10.712Z,5.51
2018-11-21T11:51:19.353Z,5.46
2018-11-21T11:52:27.982Z,5.49
2018-11-21T11:53:36.626Z,5.47
2018-11-21T11:54:45.268Z,5.49
2018-11-21T11:55:53.913Z,5.29
2018-11-21T11:57:02.550Z,5.38
2018-11-21T11:58:11.172Z,5.44
2018-11-21T11:59:20.077Z,5.34
2018-11-21T12:00:28.718Z,5.38
2018-11-21T12:01:37.365Z,5.47
2018-11-21T12:02:45.992Z,5.43
2018-11-21T12:03:57.795Z,5.43
2018-11-21T12:05:04.680Z,5.52
2018-11-21T12:06:13.634Z,5.52
2018-11-21T12:07:22.454Z,5.51
2018-11-21T12:08:31.185Z,5.58
2018-11-21T12:09:39.818Z,5.59
2018-11-21T12:10:48.731Z,5.58
2018-11-21T12:11:57.368Z,5.59
2018-11-21T12:13:10.073Z,5.64
2018-11-21T12:14:18.707Z,5.64
2018-11-21T12:15:27.610Z,5.72
2018-11-21T12:16:36.256Z,5.72
2018-11-21T12:17:45.218Z,5.65
2018-11-21T12:18:54.224Z,5.67
2018-11-21T12:20:03.076Z,5.73
2018-11-21T12:21:11.723Z,5.65
2018-11-21T12:22:21.529Z,5.73
2018-11-21T12:23:30.225Z,5.67
2018-11-21T12:24:38.861Z,5.69
2018-11-21T12:25:47.531Z,5.77
2018-11-21T12:26:56.171Z,5.79
2018-11-21T12:28:04.810Z,5.9
2018-11-21T12:29:13.441Z,5.8
2018-11-21T12:30:22.110Z,5.81
2018-11-21T12:31:30.753Z,5.72
2018-11-21T12:32:39.472Z,5.69
2018-11-21T12:33:48.117Z,5.64
2018-11-21T12:34:57.114Z,5.64
2018-11-21T12:36:05.761Z,5.64
2018-11-21T12:37:14.398Z,5.61
2018-11-21T12:38:23.054Z,5.62
2018-11-21T12:39:31.875Z,5.64
2018-11-21T12:40:40.777Z,5.59
2018-11-21T12:41:49.414Z,5.7
2018-11-21T12:42:58.060Z,5.67
2018-11-21T12:44:06.693Z,5.65
2018-11-21T12:45:15.338Z,5.61
2018-11-21T12:46:23.973Z,5.61
2018-11-21T12:47:32.616Z,5.65
2018-11-21T12:48:41.253Z,5.65
2018-11-21T12:49:49.890Z,5.65
2018-11-21T12:50:58.529Z,5.7
2018-11-21T12:52:07.424Z,5.61
2018-11-21T12:53:16.070Z,5.67
2018-11-21T12:54:24.708Z,5.67
2018-11-21T12:55:33.342Z,5.59
2018-11-21T12:56:41.973Z,5.54
2018-11-21T12:57:50.615Z,5.65
2018-11-21T12:58:59.253Z,5.62
2018-11-21T13:00:07.895Z,5.58
2018-11-21T13:01:16.526Z,5.61
2018-11-21T13:02:25.436Z,5.58
2018-11-21T13:03:34.070Z,5.59
2018-11-21T13:04:42.709Z,5.56
2018-11-21T13:05:51.345Z,5.56
2018-11-21T13:07:00.519Z,5.52
2018-11-21T13:08:09.162Z,5.52
2018-11-21T13:09:18.051Z,5.54
2018-11-21T13:10:27.014Z,5.58
2018-11-21T13:11:35.639Z,5.62
2018-11-21T13:12:44.541Z,5.56
2018-11-21T13:13:53.186Z,5.59
2018-11-21T13:15:01.827Z,5.61
2018-11-21T13:16:10.467Z,5.55
2018-11-21T13:17:19.107Z,5.61
2018-11-21T13:18:27.742Z,5.59
2018-11-21T13:19:36.382Z,5.47
2018-11-21T13:20:45.014Z,5.59
2018-11-21T13:21:53.652Z,5.52
2018-11-21T13:23:02.298Z,5.55
2018-11-21T13:24:10.934Z,5.51
2018-11-21T13:25:19.568Z,5.56
2018-11-21T13:26:28.205Z,5.56
2018-11-21T13:27:36.848Z,5.49
2018-11-21T13:28:45.480Z,5.54
2018-11-21T13:29:54.127Z,5.58
2018-11-21T13:31:02.765Z,5.44
2018-11-21T13:32:11.406Z,5.51
2018-11-21T13:33:20.042Z,5.47
2018-11-21T13:34:28.682Z,5.54
2018-11-21T13:35:37.319Z,5.49
2018-11-21T13:36:45.962Z,5.46
2018-11-21T13:37:54.600Z,5.51
2018-11-21T13:39:03.503Z,5.58
2018-11-21T13:40:12.139Z,5.52
2018-11-21T13:41:20.773Z,5.46
2018-11-21T13:42:30.419Z,5.47
2018-11-21T13:43:38.053Z,5.46
2018-11-21T13:44:46.691Z,5.55
2018-11-21T13:45:55.344Z,5.43
2018-11-21T13:47:04.249Z,5.37
2018-11-21T13:48:12.889Z,5.37
2018-11-21T13:49:21.787Z,5.38
2018-11-21T13:50:36.542Z,5.4
2018-11-21T13:51:45.175Z,5.4
2018-11-21T13:52:53.816Z,5.34
2018-11-21T13:54:02.457Z,5.38
2018-11-21T13:55:11.096Z,5.34
2018-11-21T13:56:19.727Z,5.43
2018-11-21T13:57:28.369Z,5.43
2018-11-21T13:58:37.404Z,5.41
2018-11-21T13:59:46.052Z,5.51
2018-11-21T14:00:54.684Z,5.41
2018-11-21T14:02:03.320Z,5.38
2018-11-21T14:03:11.963Z,5.46
2018-11-21T14:04:20.602Z,5.54
2018-11-21T14:05:29.240Z,5.44
2018-11-21T14:06:37.873Z,5.43
2018-11-21T14:07:46.510Z,5.47
2018-11-21T14:08:55.412Z,5.47
2018-11-21T14:10:04.058Z,5.44
2018-11-21T14:11:12.690Z,5.52
2018-11-21T14:12:21.327Z,5.51
2018-11-21T14:13:29.966Z,5.44
2018-11-21T14:14:38.605Z,5.47
2018-11-21T14:15:47.237Z,5.44
2018-11-21T14:16:55.876Z,5.43
2018-11-21T14:18:04.510Z,5.4
2018-11-21T14:19:13.153Z,5.43
2018-11-21T14:20:21.791Z,5.41
2018-11-21T14:21:30.496Z,5.51
2018-11-21T14:22:39.060Z,5.46
2018-11-21T14:23:47.693Z,5.43
2018-11-21T14:24:56.599Z,5.38
2018-11-21T14:26:05.234Z,5.41
2018-11-21T14:27:13.876Z,5.43
2018-11-21T14:28:22.767Z,5.43
2018-11-21T14:29:31.408Z,5.34
2018-11-21T14:30:40.048Z,5.36
2018-11-21T14:31:48.684Z,5.31
2018-11-21T14:32:57.314Z,5.29
2018-11-21T14:34:05.961Z,5.18
2018-11-21T14:35:14.600Z,5.13
2018-11-21T14:36:23.504Z,5.18
2018-11-21T14:37:32.130Z,5.13
2018-11-21T14:38:40.771Z,5.1
2018-11-21T14:39:49.678Z,5.12
2018-11-21T14:40:58.319Z,5.05
2018-11-21T14:42:08.523Z,5.04
2018-11-21T14:43:15.588Z,4.97
2018-11-21T14:44:24.227Z,4.97
2018-11-21T14:45:32.862Z,4.9
2018-11-21T14:46:41.505Z,4.87
2018-11-21T14:47:50.132Z,4.84
2018-11-21T14:48:58.776Z,4.82
2018-11-21T14:50:07.411Z,4.82
2018-11-21T14:51:16.054Z,4.84
2018-11-21T14:52:24.683Z,4.76
2018-11-21T14:53:33.852Z,4.76
2018-11-21T14:54:42.488Z,4.71
2018-11-21T14:55:51.384Z,4.78
2018-11-21T14:57:00.018Z,4.78
2018-11-21T14:58:08.647Z,4.78
2018-11-21T14:59:17.544Z,4.74
2018-11-21T15:00:26.181Z,4.78
2018-11-21T15:01:34.837Z,4.83
2018-11-21T15:02:43.486Z,4.82
2018-11-21T15:03:52.395Z,4.71
2018-11-21T15:05:01.022Z,4.74
2018-11-21T15:06:09.669Z,4.7
2018-11-21T15:07:18.300Z,4.78
2018-11-21T15:08:26.944Z,4.64
2018-11-21T15:09:35.570Z,4.76
2018-11-21T15:10:44.214Z,4.67
2018-11-21T15:11:52.845Z,4.74
2018-11-21T15:13:01.487Z,4.7
2018-11-21T15:14:10.110Z,4.66
2018-11-21T15:15:18.754Z,4.6
2018-11-21T15:16:27.397Z,4.67
2018-11-21T15:17:36.040Z,4.67